sensor_id;sensor_type;location;lat;lon;timestamp;pressure;altitude;pressure_sealevel;temperature;humidity
78643;BME280;67954;47.618;17.606;2023-04-16T00:00:36;100014.34;;;8.46;84.93
78643;BME280;67954;47.618;17.606;2023-04-16T00:04:50;100016.47;;;8.43;84.85
78643;BME280;67954;47.618;17.606;2023-04-16T00:09:27;100006.03;;;8.40;85.43
78643;BME280;67954;47.618;17.606;2023-04-16T00:15:19;100019.28;;;8.41;85.37
78643;BME280;67954;47.618;17.606;2023-04-16T00:15:52;100022.81;;;8.42;85.55
78643;BME280;67954;47.618;17.606;2023-04-16T00:20:43;100026.34;;;8.42;84.84
78643;BME280;67954;47.618;17.606;2023-04-16T00:21:34;100022.94;;;8.40;84.42
78643;BME280;67954;47.618;17.606;2023-04-16T00:22:05;100027.00;;;8.35;85.05
78643;BME280;67954;47.618;17.606;2023-04-16T00:24:05;100028.69;;;8.36;84.91
78643;BME280;67954;47.618;17.606;2023-04-16T00:24:37;100025.59;;;8.31;84.75
78643;BME280;67954;47.618;17.606;2023-04-16T00:26:55;100030.13;;;8.40;85.12
78643;BME280;67954;47.618;17.606;2023-04-16T00:27:27;100027.72;;;8.37;85.05
78643;BME280;67954;47.618;17.606;2023-04-16T00:36:22;100033.75;;;8.29;84.96
78643;BME280;67954;47.618;17.606;2023-04-16T00:36:53;100037.41;;;8.28;85.03
78643;BME280;67954;47.618;17.606;2023-04-16T00:37:24;100037.28;;;8.30;84.89
78643;BME280;67954;47.618;17.606;2023-04-16T00:37:55;100034.72;;;8.28;84.42
78643;BME280;67954;47.618;17.606;2023-04-16T00:38:27;100041.78;;;8.29;84.39
78643;BME280;67954;47.618;17.606;2023-04-16T00:38:59;100034.88;;;8.27;84.58
78643;BME280;67954;47.618;17.606;2023-04-16T00:39:30;100036.69;;;8.26;84.45
78643;BME280;67954;47.618;17.606;2023-04-16T00:40:02;100039.78;;;8.31;84.34
78643;BME280;67954;47.618;17.606;2023-04-16T00:40:33;100039.94;;;8.30;84.57
78643;BME280;67954;47.618;17.606;2023-04-16T00:41:04;100044.31;;;8.31;84.49
78643;BME280;67954;47.618;17.606;2023-04-16T00:41:36;100045.44;;;8.28;84.14
78643;BME280;67954;47.618;17.606;2023-04-16T00:42:08;100036.81;;;8.24;83.82
78643;BME280;67954;47.618;17.606;2023-04-16T00:42:39;100044.59;;;8.28;83.59
78643;BME280;67954;47.618;17.606;2023-04-16T00:46:24;100048.13;;;8.28;83.42
78643;BME280;67954;47.618;17.606;2023-04-16T00:46:57;100043.47;;;8.30;83.12
78643;BME280;67954;47.618;17.606;2023-04-16T00:47:28;100049.41;;;8.34;83.32
78643;BME280;67954;47.618;17.606;2023-04-16T00:47:59;100047.72;;;8.33;82.91
78643;BME280;67954;47.618;17.606;2023-04-16T00:48:30;100042.47;;;8.31;83.50
78643;BME280;67954;47.618;17.606;2023-04-16T00:49:03;100048.56;;;8.33;83.94
78643;BME280;67954;47.618;17.606;2023-04-16T00:49:34;100042.34;;;8.33;83.42
78643;BME280;67954;47.618;17.606;2023-04-16T00:50:06;100042.34;;;8.33;83.11
78643;BME280;67954;47.618;17.606;2023-04-16T00:50:38;100045.88;;;8.33;83.79
78643;BME280;67954;47.618;17.606;2023-04-16T00:51:09;100046.72;;;8.34;83.74
78643;BME280;67954;47.618;17.606;2023-04-16T00:51:42;100046.00;;;8.32;83.98
78643;BME280;67954;47.618;17.606;2023-04-16T00:52:32;100044.75;;;8.36;84.01
78643;BME280;67954;47.618;17.606;2023-04-16T00:53:04;100041.25;;;8.35;84.55
78643;BME280;67954;47.618;17.606;2023-04-16T00:53:35;100044.34;;;8.40;83.66
78643;BME280;67954;47.618;17.606;2023-04-16T00:54:07;100041.53;;;8.42;84.47
78643;BME280;67954;47.618;17.606;2023-04-16T00:54:38;100039.84;;;8.41;83.61
78643;BME280;67954;47.618;17.606;2023-04-16T00:55:10;100044.22;;;8.42;83.74
78643;BME280;67954;47.618;17.606;2023-04-16T00:55:43;100043.38;;;8.41;83.82
78643;BME280;67954;47.618;17.606;2023-04-16T00:56:14;100040.69;;;8.41;84.35
78643;BME280;67954;47.618;17.606;2023-04-16T00:56:45;100043.25;;;8.43;83.61
78643;BME280;67954;47.618;17.606;2023-04-16T00:57:18;100036.06;;;8.43;84.15
78643;BME280;67954;47.618;17.606;2023-04-16T00:57:50;100034.38;;;8.42;83.56
78643;BME280;67954;47.618;17.606;2023-04-16T00:58:22;100046.75;;;8.43;83.53
78643;BME280;67954;47.618;17.606;2023-04-16T00:58:54;100046.75;;;8.43;83.77
78643;BME280;67954;47.618;17.606;2023-04-16T00:59:26;100032.66;;;8.41;84.13
78643;BME280;67954;47.618;17.606;2023-04-16T00:59:57;100043.91;;;8.45;84.51
78643;BME280;67954;47.618;17.606;2023-04-16T01:00:29;100039.59;;;8.44;84.43
78643;BME280;67954;47.618;17.606;2023-04-16T01:01:00;100037.72;;;8.44;83.62
78643;BME280;67954;47.618;17.606;2023-04-16T01:01:31;100044.63;;;8.47;84.03
78643;BME280;67954;47.618;17.606;2023-04-16T01:02:02;100047.44;;;8.45;83.54
78643;BME280;67954;47.618;17.606;2023-04-16T01:02:33;100040.25;;;8.46;84.09
78643;BME280;67954;47.618;17.606;2023-04-16T01:03:04;100042.94;;;8.46;83.51
78643;BME280;67954;47.618;17.606;2023-04-16T01:03:37;100040.25;;;8.46;83.46
78643;BME280;67954;47.618;17.606;2023-04-16T01:04:10;100038.72;;;8.43;83.68
78643;BME280;67954;47.618;17.606;2023-04-16T01:04:41;100043.25;;;8.43;84.00
78643;BME280;67954;47.618;17.606;2023-04-16T01:05:12;100046.59;;;8.35;83.48
78643;BME280;67954;47.618;17.606;2023-04-16T01:05:44;100049.41;;;8.34;84.26
78643;BME280;67954;47.618;17.606;2023-04-16T01:06:16;100050.81;;;8.38;84.13
78643;BME280;67954;47.618;17.606;2023-04-16T01:06:49;100045.03;;;8.33;83.80
78643;BME280;67954;47.618;17.606;2023-04-16T01:07:21;100051.94;;;8.35;83.78
78643;BME280;67954;47.618;17.606;2023-04-16T01:07:52;100051.09;;;8.35;83.91
78643;BME280;67954;47.618;17.606;2023-04-16T01:08:23;100047.31;;;8.37;83.75
78643;BME280;67954;47.618;17.606;2023-04-16T01:08:55;100053.50;;;8.38;83.95
78643;BME280;67954;47.618;17.606;2023-04-16T01:09:25;100049.00;;;8.38;84.23
78643;BME280;67954;47.618;17.606;2023-04-16T01:09:56;100052.78;;;8.36;84.31
78643;BME280;67954;47.618;17.606;2023-04-16T01:12:13;100050.69;;;8.39;84.14
78643;BME280;67954;47.618;17.606;2023-04-16T01:12:45;100055.19;;;8.39;84.18
78643;BME280;67954;47.618;17.606;2023-04-16T01:13:16;100050.69;;;8.39;84.46
78643;BME280;67954;47.618;17.606;2023-04-16T01:13:46;100058.72;;;8.39;84.30
78643;BME280;67954;47.618;17.606;2023-04-16T01:14:17;100050.56;;;8.41;84.10
78643;BME280;67954;47.618;17.606;2023-04-16T01:14:49;100038.03;;;8.41;84.57
78643;BME280;67954;47.618;17.606;2023-04-16T01:15:20;100043.50;;;8.40;83.92
78643;BME280;67954;47.618;17.606;2023-04-16T01:15:50;100044.22;;;8.42;83.85
78643;BME280;67954;47.618;17.606;2023-04-16T01:16:21;100038.88;;;8.42;84.05
78643;BME280;67954;47.618;17.606;2023-04-16T01:16:53;100039.84;;;8.41;84.29
78643;BME280;67954;47.618;17.606;2023-04-16T01:17:24;100041.41;;;8.43;84.03
78643;BME280;67954;47.618;17.606;2023-04-16T01:17:54;100050.28;;;8.44;84.58
78643;BME280;67954;47.618;17.606;2023-04-16T01:18:25;100045.91;;;8.43;83.97
78643;BME280;67954;47.618;17.606;2023-04-16T01:18:57;100043.25;;;8.43;83.78
78643;BME280;67954;47.618;17.606;2023-04-16T01:19:28;100052.25;;;8.42;84.01
78643;BME280;67954;47.618;17.606;2023-04-16T01:20:00;100049.13;;;8.37;84.51
78643;BME280;67954;47.618;17.606;2023-04-16T01:20:35;100056.19;;;8.38;84.71
78643;BME280;67954;47.618;17.606;2023-04-16T01:21:06;100055.59;;;8.34;84.73
78643;BME280;67954;47.618;17.606;2023-04-16T01:22:30;100055.03;;;8.31;84.46
78643;BME280;67954;47.618;17.606;2023-04-16T01:23:01;100054.75;;;8.34;84.68
78643;BME280;67954;47.618;17.606;2023-04-16T01:28:10;100060.38;;;8.31;84.20
78643;BME280;67954;47.618;17.606;2023-04-16T01:28:42;100054.44;;;8.27;84.22
78643;BME280;67954;47.618;17.606;2023-04-16T01:29:13;100062.59;;;8.25;83.84
78643;BME280;67954;47.618;17.606;2023-04-16T01:29:44;100057.97;;;8.28;84.13
78643;BME280;67954;47.618;17.606;2023-04-16T01:36:57;100058.72;;;8.39;84.83
78643;BME280;67954;47.618;17.606;2023-04-16T01:37:29;100059.72;;;8.38;84.24
78643;BME280;67954;47.618;17.606;2023-04-16T01:46:26;100063.94;;;8.41;84.34
78643;BME280;67954;47.618;17.606;2023-04-16T01:46:58;100052.25;;;8.42;83.66
78643;BME280;67954;47.618;17.606;2023-04-16T01:50:23;100051.63;;;8.29;84.63
78643;BME280;67954;47.618;17.606;2023-04-16T01:50:55;100057.25;;;8.25;84.19
78643;BME280;67954;47.618;17.606;2023-04-16T01:56:39;100063.06;;;8.31;84.71
78643;BME280;67954;47.618;17.606;2023-04-16T01:57:13;100061.50;;;8.28;84.15
78643;BME280;67954;47.618;17.606;2023-04-16T01:57:44;100061.50;;;8.28;84.38
78643;BME280;67954;47.618;17.606;2023-04-16T02:03:26;100068.50;;;8.19;84.35
78643;BME280;67954;47.618;17.606;2023-04-16T02:12:23;100068.53;;;8.29;84.07
78643;BME280;67954;47.618;17.606;2023-04-16T02:15:50;100069.00;;;8.34;83.56
78643;BME280;67954;47.618;17.606;2023-04-16T02:16:23;100068.28;;;8.32;83.63
78643;BME280;67954;47.618;17.606;2023-04-16T02:20:24;100073.50;;;8.34;83.85
78643;BME280;67954;47.618;17.606;2023-04-16T02:23:51;100067.28;;;8.33;82.86
78643;BME280;67954;47.618;17.606;2023-04-16T02:24:23;100068.13;;;8.34;83.45
78643;BME280;67954;47.618;17.606;2023-04-16T02:27:51;100075.91;;;8.37;83.88
78643;BME280;67954;47.618;17.606;2023-04-16T02:32:43;100075.47;;;8.32;83.35
78643;BME280;67954;47.618;17.606;2023-04-16T02:37:35;100076.72;;;8.28;83.43
78643;BME280;67954;47.618;17.606;2023-04-16T02:39:37;100081.38;;;8.35;84.12
78643;BME280;67954;47.618;17.606;2023-04-16T02:41:38;100080.09;;;8.30;83.94
78643;BME280;67954;47.618;17.606;2023-04-16T02:46:31;100087.84;;;8.33;83.99
78643;BME280;67954;47.618;17.606;2023-04-16T02:47:03;100078.00;;;8.33;83.34
78643;BME280;67954;47.618;17.606;2023-04-16T02:51:37;100071.34;;;8.28;83.87
78643;BME280;67954;47.618;17.606;2023-04-16T02:52:28;100083.50;;;8.32;83.42
78643;BME280;67954;47.618;17.606;2023-04-16T02:53:01;100074.88;;;8.28;83.48
78643;BME280;67954;47.618;17.606;2023-04-16T02:53:33;100080.09;;;8.30;83.50
78643;BME280;67954;47.618;17.606;2023-04-16T02:54:04;100080.38;;;8.27;83.79
78643;BME280;67954;47.618;17.606;2023-04-16T02:54:36;100076.00;;;8.25;84.18
78643;BME280;67954;47.618;17.606;2023-04-16T02:55:25;100076.41;;;8.21;83.11
78643;BME280;67954;47.618;17.606;2023-04-16T02:55:57;100079.19;;;8.19;83.34
78643;BME280;67954;47.618;17.606;2023-04-16T02:56:29;100078.09;;;8.22;82.59
78643;BME280;67954;47.618;17.606;2023-04-16T02:57:00;100076.81;;;8.16;83.15
78643;BME280;67954;47.618;17.606;2023-04-16T03:01:53;100088.66;;;8.23;83.35
78643;BME280;67954;47.618;17.606;2023-04-16T03:02:25;100083.56;;;8.20;83.47
78643;BME280;67954;47.618;17.606;2023-04-16T03:03:16;100087.69;;;8.24;83.78
78643;BME280;67954;47.618;17.606;2023-04-16T03:03:48;100085.28;;;8.21;84.04
78643;BME280;67954;47.618;17.606;2023-04-16T03:05:30;100087.94;;;8.21;84.07
78643;BME280;67954;47.618;17.606;2023-04-16T03:07:11;100091.34;;;8.23;84.66
78643;BME280;67954;47.618;17.606;2023-04-16T03:07:47;100095.84;;;8.23;84.09
78643;BME280;67954;47.618;17.606;2023-04-16T03:08:20;100088.06;;;8.20;84.53
78643;BME280;67954;47.618;17.606;2023-04-16T03:08:50;100091.34;;;8.23;84.31
78643;BME280;67954;47.618;17.606;2023-04-16T03:09:22;100087.94;;;8.21;84.08
78643;BME280;67954;47.618;17.606;2023-04-16T03:09:53;100095.13;;;8.21;83.96
78643;BME280;67954;47.618;17.606;2023-04-16T03:10:24;100090.88;;;8.18;84.10
78643;BME280;67954;47.618;17.606;2023-04-16T03:10:56;100090.75;;;8.20;83.33
78643;BME280;67954;47.618;17.606;2023-04-16T03:11:26;100094.16;;;8.22;83.40
78643;BME280;67954;47.618;17.606;2023-04-16T03:11:57;100089.78;;;8.21;83.53
78643;BME280;67954;47.618;17.606;2023-04-16T03:12:28;100098.66;;;8.21;83.79
78643;BME280;67954;47.618;17.606;2023-04-16T03:13:00;100094.28;;;8.20;84.23
78643;BME280;67954;47.618;17.606;2023-04-16T03:13:31;100094.28;;;8.20;83.90
78643;BME280;67954;47.618;17.606;2023-04-16T03:14:01;100094.28;;;8.20;84.16
78643;BME280;67954;47.618;17.606;2023-04-16T03:14:33;100098.66;;;8.21;84.70
78643;BME280;67954;47.618;17.606;2023-04-16T03:15:05;100095.97;;;8.21;84.82
78643;BME280;67954;47.618;17.606;2023-04-16T03:15:36;100098.66;;;8.21;84.66
78643;BME280;67954;47.618;17.606;2023-04-16T03:16:07;100089.63;;;8.22;84.40
78643;BME280;67954;47.618;17.606;2023-04-16T03:17:51;100101.47;;;8.20;83.84
78643;BME280;67954;47.618;17.606;2023-04-16T03:18:21;100103.28;;;8.19;84.49
78643;BME280;67954;47.618;17.606;2023-04-16T03:20:05;100099.94;;;8.17;83.79
78643;BME280;67954;47.618;17.606;2023-04-16T03:20:56;100108.50;;;8.21;84.13
78643;BME280;67954;47.618;17.606;2023-04-16T03:21:27;100097.25;;;8.17;84.42
78643;BME280;67954;47.618;17.606;2023-04-16T03:21:59;100105.13;;;8.19;83.92
78643;BME280;67954;47.618;17.606;2023-04-16T03:22:30;100102.59;;;8.17;84.35
78643;BME280;67954;47.618;17.606;2023-04-16T03:23:00;100098.66;;;8.21;83.98
78643;BME280;67954;47.618;17.606;2023-04-16T03:23:32;100100.59;;;8.19;83.97
78643;BME280;67954;47.618;17.606;2023-04-16T03:24:03;100093.56;;;8.18;84.28
78643;BME280;67954;47.618;17.606;2023-04-16T03:24:34;100104.84;;;8.22;84.46
78643;BME280;67954;47.618;17.606;2023-04-16T03:25:08;100100.34;;;8.22;83.93
78643;BME280;67954;47.618;17.606;2023-04-16T03:25:39;100105.56;;;8.24;83.49
78643;BME280;67954;47.618;17.606;2023-04-16T03:26:10;100096.69;;;8.23;83.85
78643;BME280;67954;47.618;17.606;2023-04-16T03:33:06;100109.78;;;8.17;84.73
78643;BME280;67954;47.618;17.606;2023-04-16T03:33:37;100109.78;;;8.17;83.97
78643;BME280;67954;47.618;17.606;2023-04-16T03:34:08;100107.66;;;8.20;83.88
78643;BME280;67954;47.618;17.606;2023-04-16T03:34:39;100103.97;;;8.12;84.32
78643;BME280;67954;47.618;17.606;2023-04-16T03:35:11;100110.03;;;8.14;84.18
78643;BME280;67954;47.618;17.606;2023-04-16T03:35:42;100105.53;;;8.14;84.96
78643;BME280;67954;47.618;17.606;2023-04-16T03:36:12;100111.63;;;8.16;84.15
78643;BME280;67954;47.618;17.606;2023-04-16T03:36:44;100108.22;;;8.14;84.62
78643;BME280;67954;47.618;17.606;2023-04-16T03:37:15;100110.91;;;8.14;84.78
78643;BME280;67954;47.618;17.606;2023-04-16T03:37:46;100115.28;;;8.15;84.56
78643;BME280;67954;47.618;17.606;2023-04-16T03:38:19;100104.81;;;8.12;84.76
78643;BME280;67954;47.618;17.606;2023-04-16T03:38:50;100106.78;;;8.10;84.50
78643;BME280;67954;47.618;17.606;2023-04-16T03:39:21;100105.94;;;8.10;84.78
78643;BME280;67954;47.618;17.606;2023-04-16T03:39:51;100108.34;;;8.13;84.89
78643;BME280;67954;47.618;17.606;2023-04-16T03:42:10;100114.28;;;8.16;84.49
78643;BME280;67954;47.618;17.606;2023-04-16T03:42:41;100119.91;;;8.13;84.71
78643;BME280;67954;47.618;17.606;2023-04-16T03:43:12;100116.38;;;8.13;84.76
78643;BME280;67954;47.618;17.606;2023-04-16T03:44:52;100112.13;;;8.10;84.75
78643;BME280;67954;47.618;17.606;2023-04-16T03:45:23;100116.25;;;8.14;85.03
78643;BME280;67954;47.618;17.606;2023-04-16T03:45:54;100117.09;;;8.15;84.98
78643;BME280;67954;47.618;17.606;2023-04-16T03:46:25;100118.06;;;8.14;84.41
78643;BME280;67954;47.618;17.606;2023-04-16T03:46:56;100113.00;;;8.11;84.63
78643;BME280;67954;47.618;17.606;2023-04-16T03:47:28;100119.72;;;8.05;85.06
78643;BME280;67954;47.618;17.606;2023-04-16T03:47:59;100114.94;;;8.09;84.35
78643;BME280;67954;47.618;17.606;2023-04-16T03:48:31;100115.38;;;8.04;84.53
78643;BME280;67954;47.618;17.606;2023-04-16T03:49:03;100120.56;;;8.06;85.00
78643;BME280;67954;47.618;17.606;2023-04-16T03:49:34;100117.59;;;7.99;84.46
78643;BME280;67954;47.618;17.606;2023-04-16T03:50:05;100124.38;;;8.03;84.46
78643;BME280;67954;47.618;17.606;2023-04-16T03:50:36;100120.00;;;8.02;84.97
78643;BME280;67954;47.618;17.606;2023-04-16T03:51:08;100120.84;;;8.03;84.16
78643;BME280;67954;47.618;17.606;2023-04-16T03:51:39;100119.16;;;8.02;84.22
78643;BME280;67954;47.618;17.606;2023-04-16T03:52:09;100123.91;;;7.98;84.63
78643;BME280;67954;47.618;17.606;2023-04-16T03:52:41;100121.97;;;8.00;84.74
78643;BME280;67954;47.618;17.606;2023-04-16T03:53:12;100121.25;;;7.98;84.18
78643;BME280;67954;47.618;17.606;2023-04-16T03:53:43;100124.78;;;7.99;84.51
78643;BME280;67954;47.618;17.606;2023-04-16T03:54:17;100115.19;;;7.96;84.50
78643;BME280;67954;47.618;17.606;2023-04-16T03:54:48;100123.91;;;7.98;84.72
78643;BME280;67954;47.618;17.606;2023-04-16T03:55:37;100122.94;;;7.99;84.36
78643;BME280;67954;47.618;17.606;2023-04-16T03:56:09;100119.56;;;7.97;84.46
78643;BME280;67954;47.618;17.606;2023-04-16T03:56:40;100113.47;;;7.95;84.39
78643;BME280;67954;47.618;17.606;2023-04-16T03:57:11;100119.41;;;7.99;84.49
78643;BME280;67954;47.618;17.606;2023-04-16T03:57:43;100116.88;;;7.97;85.06
78643;BME280;67954;47.618;17.606;2023-04-16T03:58:14;100118.31;;;8.01;84.96
78643;BME280;67954;47.618;17.606;2023-04-16T03:58:44;100119.03;;;8.03;84.63
78643;BME280;67954;47.618;17.606;2023-04-16T03:59:16;100109.25;;;7.93;84.43
78643;BME280;67954;47.618;17.606;2023-04-16T03:59:47;100116.88;;;7.97;84.75
78643;BME280;67954;47.618;17.606;2023-04-16T04:00:18;100125.88;;;7.96;84.86
78643;BME280;67954;47.618;17.606;2023-04-16T04:00:52;100119.56;;;7.97;84.59
78643;BME280;67954;47.618;17.606;2023-04-16T04:01:22;100113.75;;;7.92;84.55
78643;BME280;67954;47.618;17.606;2023-04-16T04:01:53;100119.56;;;7.97;85.03
78643;BME280;67954;47.618;17.606;2023-04-16T04:02:25;100123.03;;;7.88;84.75
78643;BME280;67954;47.618;17.606;2023-04-16T04:02:56;100125.72;;;7.88;84.55
78643;BME280;67954;47.618;17.606;2023-04-16T04:03:28;100120.09;;;7.91;84.94
78643;BME280;67954;47.618;17.606;2023-04-16T04:04:01;100124.19;;;7.95;85.04
78643;BME280;67954;47.618;17.606;2023-04-16T04:04:32;100123.06;;;7.98;84.90
78643;BME280;67954;47.618;17.606;2023-04-16T04:05:04;100126.13;;;7.93;85.11
78643;BME280;67954;47.618;17.606;2023-04-16T04:05:36;100126.00;;;7.95;85.01
78643;BME280;67954;47.618;17.606;2023-04-16T04:06:07;100127.13;;;7.92;84.79
78643;BME280;67954;47.618;17.606;2023-04-16T04:06:57;100128.81;;;7.93;84.97
78643;BME280;67954;47.618;17.606;2023-04-16T04:07:29;100122.47;;;7.94;85.17
78643;BME280;67954;47.618;17.606;2023-04-16T04:08:00;100127.72;;;7.96;84.64
78643;BME280;67954;47.618;17.606;2023-04-16T04:08:31;100127.84;;;7.94;84.22
78643;BME280;67954;47.618;17.606;2023-04-16T04:09:03;100121.63;;;7.94;85.04
78643;BME280;67954;47.618;17.606;2023-04-16T04:09:33;100129.53;;;7.95;84.23
78643;BME280;67954;47.618;17.606;2023-04-16T04:10:06;100124.19;;;7.95;85.05
78643;BME280;67954;47.618;17.606;2023-04-16T04:10:38;100131.94;;;7.98;84.93
78643;BME280;67954;47.618;17.606;2023-04-16T04:11:08;100134.63;;;7.98;84.49
78643;BME280;67954;47.618;17.606;2023-04-16T04:11:39;100136.31;;;7.99;84.89
78643;BME280;67954;47.618;17.606;2023-04-16T04:12:10;100130.13;;;7.99;84.46
78643;BME280;67954;47.618;17.606;2023-04-16T04:12:43;100135.47;;;7.99;84.37
78643;BME280;67954;47.618;17.606;2023-04-16T04:13:13;100139.97;;;7.98;84.49
78643;BME280;67954;47.618;17.606;2023-04-16T04:13:44;100136.31;;;7.99;85.04
78643;BME280;67954;47.618;17.606;2023-04-16T04:15:24;100136.91;;;8.03;84.53
78643;BME280;67954;47.618;17.606;2023-04-16T04:15:55;100138.00;;;8.00;84.93
78643;BME280;67954;47.618;17.606;2023-04-16T04:16:27;100142.66;;;7.98;84.47
78643;BME280;67954;47.618;17.606;2023-04-16T04:16:57;100140.69;;;8.00;84.69
78643;BME280;67954;47.618;17.606;2023-04-16T04:17:28;100140.94;;;7.97;84.87
78643;BME280;67954;47.618;17.606;2023-04-16T04:17:59;100140.94;;;7.97;85.08
78643;BME280;67954;47.618;17.606;2023-04-16T04:18:31;100140.94;;;7.97;84.39
78643;BME280;67954;47.618;17.606;2023-04-16T04:19:03;100153.22;;;8.00;84.30
78643;BME280;67954;47.618;17.606;2023-04-16T04:19:34;100143.50;;;7.99;84.25
78643;BME280;67954;47.618;17.606;2023-04-16T04:20:06;100143.63;;;7.97;84.43
78643;BME280;67954;47.618;17.606;2023-04-16T04:20:38;100139.50;;;7.93;84.43
78643;BME280;67954;47.618;17.606;2023-04-16T04:21:09;100146.16;;;7.99;84.81
78643;BME280;67954;47.618;17.606;2023-04-16T04:21:41;100149.69;;;7.99;84.61
78643;BME280;67954;47.618;17.606;2023-04-16T04:22:11;100140.94;;;7.97;84.17
78643;BME280;67954;47.618;17.606;2023-04-16T04:22:42;100142.06;;;7.95;84.31
78643;BME280;67954;47.618;17.606;2023-04-16T04:23:14;100143.88;;;7.94;84.57
78643;BME280;67954;47.618;17.606;2023-04-16T04:23:46;100152.63;;;7.96;84.63
78643;BME280;67954;47.618;17.606;2023-04-16T04:24:16;100153.59;;;7.95;84.41
78643;BME280;67954;47.618;17.606;2023-04-16T04:24:48;100153.75;;;7.94;84.40
78643;BME280;67954;47.618;17.606;2023-04-16T04:25:19;100154.59;;;7.94;84.74
78643;BME280;67954;47.618;17.606;2023-04-16T04:25:50;100155.31;;;7.96;84.68
78643;BME280;67954;47.618;17.606;2023-04-16T04:26:22;100144.47;;;7.98;85.08
78643;BME280;67954;47.618;17.606;2023-04-16T04:26:53;100153.22;;;8.00;84.97
78643;BME280;67954;47.618;17.606;2023-04-16T04:27:23;100147.88;;;8.00;84.75
78643;BME280;67954;47.618;17.606;2023-04-16T04:27:55;100145.31;;;7.98;84.33
78643;BME280;67954;47.618;17.606;2023-04-16T04:28:26;100154.06;;;8.00;84.69
78643;BME280;67954;47.618;17.606;2023-04-16T04:28:57;100160.84;;;8.04;84.92
78643;BME280;67954;47.618;17.606;2023-04-16T04:29:29;100156.19;;;8.06;84.23
78643;BME280;67954;47.618;17.606;2023-04-16T04:29:59;100159.59;;;8.08;84.78
78643;BME280;67954;47.618;17.606;2023-04-16T04:30:30;100160.31;;;8.10;84.88
78643;BME280;67954;47.618;17.606;2023-04-16T04:31:02;100152.53;;;8.07;84.45
78643;BME280;67954;47.618;17.606;2023-04-16T04:31:33;100154.94;;;8.10;84.34
78643;BME280;67954;47.618;17.606;2023-04-16T04:32:04;100159.31;;;8.11;84.94
78643;BME280;67954;47.618;17.606;2023-04-16T04:32:36;100157.38;;;8.13;84.91
78643;BME280;67954;47.618;17.606;2023-04-16T04:33:06;100160.16;;;8.12;84.79
78643;BME280;67954;47.618;17.606;2023-04-16T04:33:37;100161.75;;;8.14;84.34
78643;BME280;67954;47.618;17.606;2023-04-16T04:34:09;100159.19;;;8.13;84.52
78643;BME280;67954;47.618;17.606;2023-04-16T04:34:41;100161.88;;;8.13;84.05
78643;BME280;67954;47.618;17.606;2023-04-16T04:35:12;100158.47;;;8.11;84.24
78643;BME280;67954;47.618;17.606;2023-04-16T04:35:43;100171.84;;;8.11;84.70
78643;BME280;67954;47.618;17.606;2023-04-16T04:36:35;100168.66;;;8.17;84.35
78643;BME280;67954;47.618;17.606;2023-04-16T04:37:06;100164.16;;;8.17;84.80
78643;BME280;67954;47.618;17.606;2023-04-16T04:37:37;100165.56;;;8.21;84.74
78643;BME280;67954;47.618;17.606;2023-04-16T04:38:09;100161.47;;;8.17;84.12
78643;BME280;67954;47.618;17.606;2023-04-16T04:38:39;100168.34;;;8.20;84.16
78643;BME280;67954;47.618;17.606;2023-04-16T04:39:10;100162.28;;;8.18;84.45
78643;BME280;67954;47.618;17.606;2023-04-16T04:39:41;100170.91;;;8.21;84.47
78643;BME280;67954;47.618;17.606;2023-04-16T04:40:14;100173.44;;;8.23;84.84
78643;BME280;67954;47.618;17.606;2023-04-16T04:40:45;100171.75;;;8.22;84.47
78643;BME280;67954;47.618;17.606;2023-04-16T04:41:16;100169.06;;;8.22;84.61
78643;BME280;67954;47.618;17.606;2023-04-16T04:41:48;100169.94;;;8.22;84.24
78643;BME280;67954;47.618;17.606;2023-04-16T04:42:20;100167.84;;;8.26;84.24
78643;BME280;67954;47.618;17.606;2023-04-16T04:42:51;100170.50;;;8.26;84.36
78643;BME280;67954;47.618;17.606;2023-04-16T04:43:22;100173.63;;;8.31;84.46
78643;BME280;67954;47.618;17.606;2023-04-16T04:43:54;100171.94;;;8.30;84.54
78643;BME280;67954;47.618;17.606;2023-04-16T04:44:25;100172.41;;;8.35;84.65
78643;BME280;67954;47.618;17.606;2023-04-16T04:44:55;100180.44;;;8.35;84.08
78643;BME280;67954;47.618;17.606;2023-04-16T04:45:27;100170.72;;;8.34;84.41
78643;BME280;67954;47.618;17.606;2023-04-16T04:45:58;100175.94;;;8.36;84.57
78643;BME280;67954;47.618;17.606;2023-04-16T04:46:29;100169.72;;;8.35;84.11
78643;BME280;67954;47.618;17.606;2023-04-16T04:47:01;100185.78;;;8.35;84.21
78643;BME280;67954;47.618;17.606;2023-04-16T04:47:31;100174.22;;;8.35;84.46
78643;BME280;67954;47.618;17.606;2023-04-16T04:48:02;100178.47;;;8.37;84.46
78643;BME280;67954;47.618;17.606;2023-04-16T04:48:34;100181.88;;;8.39;83.81
78643;BME280;67954;47.618;17.606;2023-04-16T04:49:05;100173.97;;;8.38;84.50
78643;BME280;67954;47.618;17.606;2023-04-16T04:49:37;100176.25;;;8.42;84.73
78643;BME280;67954;47.618;17.606;2023-04-16T04:50:09;100176.13;;;8.44;84.36
78643;BME280;67954;47.618;17.606;2023-04-16T04:50:41;100179.63;;;8.44;84.32
78643;BME280;67954;47.618;17.606;2023-04-16T04:51:12;100172.84;;;8.40;84.29
78643;BME280;67954;47.618;17.606;2023-04-16T04:51:43;100193.28;;;8.41;83.52
78643;BME280;67954;47.618;17.606;2023-04-16T04:52:14;100177.38;;;8.40;83.99
78643;BME280;67954;47.618;17.606;2023-04-16T04:52:45;100189.50;;;8.44;84.26
78643;BME280;67954;47.618;17.606;2023-04-16T04:53:16;100188.50;;;8.45;83.52
78643;BME280;67954;47.618;17.606;2023-04-16T04:54:56;100189.22;;;8.47;83.99
78643;BME280;67954;47.618;17.606;2023-04-16T04:55:28;100181.88;;;8.49;84.27
78643;BME280;67954;47.618;17.606;2023-04-16T04:55:59;100191.50;;;8.51;84.35
78643;BME280;67954;47.618;17.606;2023-04-16T04:56:29;100198.53;;;8.52;84.40
78643;BME280;67954;47.618;17.606;2023-04-16T04:57:01;100190.38;;;8.54;84.26